Time;durP1;ratioP1;P1;durP2;ratioP2;P2;SDS_P1;SDS_P2;PMS_P1;PMS_P2;Temp;Humidity;BMP_temperature;BMP_pressure;BME280_temperature;BME280_humidity;BME280_pressure;Samples;Min_cycle;Max_cycle;Signal;HPM_P1;HPM_P2
2022/06/25 00:01:15;;;;;;;32.35;29.52;;;17.30;99.90;;;;;;4976618;28;20612;-74
2022/06/25 00:03:41;;;;;;;36.42;32.65;;;17.20;99.90;;;;;;4974889;28;20046;-74
2022/06/25 00:06:07;;;;;;;36.03;32.45;;;17.20;99.90;;;;;;4959497;28;20773;-74
2022/06/25 00:08:34;;;;;;;34.58;31.13;;;17.20;99.90;;;;;;4988123;28;20121;-74
2022/06/25 00:11:01;;;;;;;38.03;34.30;;;17.10;99.90;;;;;;4976076;28;20042;-74
2022/06/25 00:13:27;;;;;;;33.58;30.58;;;17.10;99.90;;;;;;4957649;28;20505;-74
2022/06/25 00:15:53;;;;;;;34.63;31.33;;;17.10;99.90;;;;;;4973924;28;20038;-74
2022/06/25 00:18:19;;;;;;;29.77;26.85;;;17.10;99.90;;;;;;4974931;28;20064;-74
2022/06/25 00:20:46;;;;;;;33.70;30.63;;;17.00;99.90;;;;;;4976811;28;20137;-74
2022/06/25 00:23:12;;;;;;;33.45;30.17;;;17.00;99.90;;;;;;4972920;28;20470;-74
2022/06/25 00:25:38;;;;;;;33.58;30.48;;;17.00;99.90;;;;;;4976375;28;20193;-73
2022/06/25 00:28:04;;;;;;;30.20;27.48;;;17.00;99.90;;;;;;4974453;28;20134;-74
2022/06/25 00:30:29;;;;;;;29.77;26.98;;;16.90;99.90;;;;;;4958770;28;20500;-74
2022/06/25 00:32:55;;;;;;;30.25;27.20;;;16.90;99.90;;;;;;4975088;28;20046;-74
2022/06/25 00:35:21;;;;;;;28.40;25.65;;;16.90;99.90;;;;;;4974337;28;20469;-74
2022/06/25 00:37:47;;;;;;;29.40;26.60;;;16.90;99.90;;;;;;4973716;28;20054;-74
2022/06/25 00:40:13;;;;;;;28.23;25.33;;;16.90;99.90;;;;;;4973911;28;20046;-74
2022/06/25 00:42:47;;;;;;;28.42;25.77;;;16.90;99.90;;;;;;4974072;28;20054;-74
2022/06/25 00:45:13;;;;;;;27.52;25.05;;;16.80;99.90;;;;;;4956187;28;20039;-74
2022/06/25 00:47:39;;;;;;;26.88;24.33;;;16.80;99.90;;;;;;4977178;28;20150;-74
2022/06/25 00:50:05;;;;;;;29.02;26.10;;;16.80;99.90;;;;;;4973448;28;20033;-74
2022/06/25 00:52:33;;;;;;;25.50;23.20;;;16.80;99.90;;;;;;4977141;28;20038;-74
2022/06/25 00:55:05;;;;;;;25.08;22.70;;;16.70;99.90;;;;;;4974085;28;20363;-74
2022/06/25 00:57:33;;;;;;;24.23;21.75;;;16.70;99.90;;;;;;4988815;28;20058;-74
2022/06/25 01:00:04;;;;;;;23.65;21.55;;;16.70;99.90;;;;;;4973199;28;20173;-74
2022/06/25 01:02:30;;;;;;;23.10;20.77;;;16.70;99.90;;;;;;4974531;28;20054;-74
2022/06/25 01:04:56;;;;;;;21.52;19.55;;;16.60;99.90;;;;;;4975948;28;20540;-74
2022/06/25 01:07:22;;;;;;;24.38;21.95;;;16.60;99.90;;;;;;4970894;28;20497;-74
2022/06/25 01:09:49;;;;;;;23.38;21.00;;;16.50;99.90;;;;;;4976111;28;20165;-74
2022/06/25 01:12:16;;;;;;;22.90;20.77;;;16.50;99.90;;;;;;4977594;28;20041;-74
2022/06/25 01:14:43;;;;;;;23.75;21.50;;;16.50;99.90;;;;;;4980308;28;20140;-74
2022/06/25 01:17:09;;;;;;;23.65;21.35;;;16.50;99.90;;;;;;4960282;28;20086;-74
2022/06/25 01:19:37;;;;;;;21.27;19.33;;;16.50;99.90;;;;;;4977786;28;20129;-74
2022/06/25 01:22:06;;;;;;;20.80;18.77;;;16.50;99.90;;;;;;4994348;28;20042;-74
2022/06/25 01:24:32;;;;;;;15.95;14.45;;;16.50;99.90;;;;;;4990583;28;20045;-74
2022/06/25 01:26:59;;;;;;;18.05;16.30;;;16.50;99.90;;;;;;4976812;28;20050;-74
2022/06/25 01:29:24;;;;;;;15.93;14.63;;;16.40;99.90;;;;;;4966318;28;20517;-74
2022/06/25 01:31:51;;;;;;;17.00;15.40;;;16.50;99.90;;;;;;4962740;28;20129;-74
2022/06/25 01:34:17;;;;;;;15.05;13.65;;;16.40;99.90;;;;;;4977920;28;20146;-74
2022/06/25 01:36:43;;;;;;;15.20;13.80;;;16.40;99.90;;;;;;4977458;28;20041;-74
2022/06/25 01:39:09;;;;;;;15.93;14.52;;;16.40;99.90;;;;;;4977370;28;20536;-74
2022/06/25 01:41:35;;;;;;;15.60;14.15;;;16.40;99.90;;;;;;4977438;28;20406;-74
2022/06/25 01:44:01;;;;;;;17.25;13.88;;;16.40;99.90;;;;;;4976190;28;20049;-73
2022/06/25 01:46:26;;;;;;;13.68;12.48;;;16.40;99.90;;;;;;4970532;28;20074;-73
2022/06/25 01:48:52;;;;;;;13.48;12.35;;;16.30;99.90;;;;;;4976439;28;20065;-73
2022/06/25 01:51:20;;;;;;;12.30;11.10;;;16.30;99.90;;;;;;4977658;28;20038;-73
2022/06/25 01:53:46;;;;;;;12.60;10.77;;;16.30;99.90;;;;;;4975924;28;20042;-73
2022/06/25 01:56:11;;;;;;;12.93;11.73;;;16.30;99.90;;;;;;4974038;28;20421;-73
2022/06/25 01:58:37;;;;;;;12.38;11.27;;;16.30;99.90;;;;;;4976323;28;20037;-73
2022/06/25 02:01:04;;;;;;;10.23;9.32;;;16.30;99.90;;;;;;4962456;28;20049;-73
2022/06/25 02:03:30;;;;;;;11.38;10.27;;;16.30;99.90;;;;;;4961369;28;20045;-73
2022/06/25 02:05:58;;;;;;;11.18;10.15;;;16.30;99.90;;;;;;4980169;28;20046;-73
2022/06/25 02:08:32;;;;;;;10.70;9.60;;;16.30;99.90;;;;;;4977898;28;20444;-73
2022/06/25 02:10:59;;;;;;;9.95;9.05;;;16.30;99.90;;;;;;4987751;28;20446;-73
2022/06/25 02:13:26;;;;;;;9.32;8.45;;;16.30;99.90;;;;;;4976944;28;20319;-73
2022/06/25 02:15:53;;;;;;;11.25;10.23;;;16.30;99.90;;;;;;4976707;28;20105;-73
2022/06/25 02:18:19;;;;;;;10.07;9.13;;;16.30;99.90;;;;;;4958358;28;20050;-73
2022/06/25 02:20:45;;;;;;;9.95;9.05;;;16.30;99.90;;;;;;4977393;28;20136;-73
2022/06/25 02:23:12;;;;;;;10.13;9.20;;;16.30;99.90;;;;;;4974817;28;20046;-73
2022/06/25 02:25:38;;;;;;;11.10;10.20;;;16.30;99.90;;;;;;4976492;28;20053;-73
2022/06/25 02:28:04;;;;;;;11.00;9.90;;;16.30;99.90;;;;;;4976858;28;20049;-73
2022/06/25 02:30:30;;;;;;;10.75;9.80;;;16.30;99.90;;;;;;4958684;28;20058;-73
2022/06/25 02:32:55;;;;;;;11.52;10.30;;;16.20;99.90;;;;;;4976305;28;20053;-73
2022/06/25 02:35:21;;;;;;;12.15;10.82;;;16.20;99.90;;;;;;4975302;28;20042;-73
2022/06/25 02:37:46;;;;;;;11.50;10.45;;;16.20;99.90;;;;;;4972134;28;20113;-73
2022/06/25 02:40:12;;;;;;;11.93;10.77;;;16.20;99.90;;;;;;4962954;28;20054;-73
2022/06/25 02:42:39;;;;;;;12.00;10.80;;;16.30;99.90;;;;;;4970983;28;20050;-73
2022/06/25 02:45:06;;;;;;;11.73;10.35;;;16.20;99.90;;;;;;4955643;28;20050;-73
2022/06/25 02:47:32;;;;;;;12.23;10.98;;;16.20;99.90;;;;;;4971763;28;20382;-72
2022/06/25 02:49:59;;;;;;;12.80;11.52;;;16.20;99.90;;;;;;4972227;28;20050;-73
2022/06/25 02:52:25;;;;;;;13.23;11.93;;;16.20;99.90;;;;;;4972142;28;20402;-73
2022/06/25 02:54:50;;;;;;;11.63;10.52;;;16.20;99.90;;;;;;4972201;28;20046;-73
2022/06/25 03:00:01;;;;;;;12.93;10.57;;;16.20;99.90;;;;;;4972360;28;20410;-73
2022/06/25 03:02:27;;;;;;;11.95;10.75;;;16.20;99.90;;;;;;4955277;28;20066;-74
2022/06/25 03:04:53;;;;;;;13.07;11.85;;;16.20;99.90;;;;;;4971744;28;20062;-74
2022/06/25 03:07:18;;;;;;;12.77;11.68;;;16.20;99.90;;;;;;4973444;28;20405;-73
2022/06/25 03:09:44;;;;;;;12.98;11.88;;;16.20;99.90;;;;;;4969972;28;20391;-73
2022/06/25 03:12:12;;;;;;;11.63;10.63;;;16.20;99.90;;;;;;4971034;28;20055;-73
2022/06/25 03:14:37;;;;;;;12.55;11.43;;;16.10;99.90;;;;;;4972170;28;20522;-73
2022/06/25 03:17:03;;;;;;;12.93;11.20;;;16.10;99.90;;;;;;4971760;28;20043;-73
2022/06/25 03:19:29;;;;;;;11.77;10.57;;;16.10;99.90;;;;;;4971780;28;20113;-73
2022/06/25 03:21:55;;;;;;;11.80;10.73;;;16.20;99.90;;;;;;4971668;28;20039;-73
2022/06/25 03:24:20;;;;;;;12.02;10.98;;;16.10;99.90;;;;;;4971684;28;20042;-74
2022/06/25 03:26:46;;;;;;;12.40;11.25;;;16.10;99.90;;;;;;4970823;28;20045;-73
2022/06/25 03:29:12;;;;;;;12.32;11.13;;;16.10;99.90;;;;;;4971178;28;20035;-73
2022/06/25 03:31:37;;;;;;;12.57;11.32;;;16.20;99.90;;;;;;4971406;28;20391;-73
2022/06/25 03:34:03;;;;;;;12.80;11.70;;;16.10;99.90;;;;;;4971627;28;20041;-73
2022/06/25 03:36:29;;;;;;;12.52;11.40;;;16.10;99.90;;;;;;4971562;28;20043;-73
2022/06/25 03:38:54;;;;;;;11.68;10.68;;;16.10;99.90;;;;;;4955122;28;20055;-73
2022/06/25 03:41:32;;;;;;;12.25;11.25;;;16.10;99.90;;;;;;4971400;28;20038;-73
2022/06/25 03:43:59;;;;;;;13.23;11.68;;;16.10;99.90;;;;;;4970663;28;20043;-73
2022/06/25 03:46:24;;;;;;;11.73;10.73;;;16.10;99.90;;;;;;4971368;28;20388;-73
2022/06/25 03:48:50;;;;;;;12.50;11.18;;;16.10;99.90;;;;;;4971288;28;20050;-73
2022/06/25 03:51:15;;;;;;;12.43;10.98;;;16.10;99.90;;;;;;4954852;28;20154;-73
2022/06/25 03:53:41;;;;;;;11.50;10.50;;;16.10;99.90;;;;;;4971377;28;20034;-73
2022/06/25 03:56:07;;;;;;;12.05;10.85;;;16.20;99.90;;;;;;4971373;28;20041;-73
2022/06/25 03:58:33;;;;;;;11.82;10.65;;;16.20;99.90;;;;;;4970764;28;20464;-73
2022/06/25 04:00:59;;;;;;;12.27;11.10;;;16.30;99.90;;;;;;4971298;28;20130;-73
2022/06/25 04:03:24;;;;;;;11.50;10.45;;;16.30;99.90;;;;;;4970339;28;20042;-73
2022/06/25 04:05:50;;;;;;;11.10;9.98;;;16.40;99.90;;;;;;4965482;28;20490;-73
2022/06/25 04:08:16;;;;;;;11.65;10.60;;;16.40;99.90;;;;;;4970914;28;20047;-73
2022/06/25 04:10:42;;;;;;;12.07;10.88;;;16.40;99.90;;;;;;4971098;28;20490;-73
2022/06/25 04:13:09;;;;;;;11.80;10.65;;;16.40;99.90;;;;;;4970156;28;20049;-73
2022/06/25 04:15:35;;;;;;;11.85;10.32;;;16.50;99.90;;;;;;4953173;28;20039;-73
2022/06/25 04:18:02;;;;;;;11.27;10.27;;;16.50;99.90;;;;;;4970378;28;20093;-73
2022/06/25 04:20:27;;;;;;;11.73;10.52;;;16.50;99.90;;;;;;4971090;28;20507;-73
2022/06/25 04:22:53;;;;;;;12.65;10.60;;;16.60;99.90;;;;;;4954180;28;20056;-72
2022/06/25 04:25:19;;;;;;;10.90;9.80;;;16.70;99.90;;;;;;4970630;28;20077;-73
2022/06/25 04:30:29;;;;;;;10.15;9.25;;;16.80;99.90;;;;;;4969185;28;20570;-73
2022/06/25 04:32:55;;;;;;;10.07;8.95;;;16.90;99.90;;;;;;4970398;28;20121;-73
2022/06/25 04:35:21;;;;;;;10.93;10.00;;;16.90;99.90;;;;;;4947514;28;20046;-73
2022/06/25 04:37:46;;;;;;;10.05;9.25;;;17.00;99.90;;;;;;4971109;28;20054;-73
2022/06/25 04:40:12;;;;;;;10.00;9.13;;;17.10;99.90;;;;;;4955254;28;20062;-73
2022/06/25 04:42:38;;;;;;;8.98;8.07;;;17.20;99.90;;;;;;4961292;28;20089;-73
2022/06/25 04:45:04;;;;;;;9.50;8.50;;;17.20;99.90;;;;;;4974587;28;20089;-73
2022/06/25 04:47:29;;;;;;;9.45;8.63;;;17.30;99.90;;;;;;4973799;28;20051;-73
2022/06/25 04:49:55;;;;;;;10.35;9.35;;;17.30;99.90;;;;;;4974445;28;20093;-73
2022/06/25 04:52:21;;;;;;;9.82;8.90;;;17.40;99.90;;;;;;4974108;28;20046;-73
2022/06/25 04:54:46;;;;;;;9.88;8.98;;;17.50;99.90;;;;;;4974703;28;20095;-73
2022/06/25 04:57:12;;;;;;;9.38;8.20;;;17.60;99.90;;;;;;4973018;28;20039;-73
2022/06/25 04:59:38;;;;;;;9.70;7.85;;;17.70;99.90;;;;;;4958080;28;20133;-73
2022/06/25 05:02:04;;;;;;;8.88;8.10;;;17.90;99.90;;;;;;4973788;28;20043;-73
2022/06/25 05:04:29;;;;;;;8.63;7.38;;;18.00;99.90;;;;;;4973787;28;20426;-73
2022/06/25 05:06:55;;;;;;;7.72;7.00;;;18.20;99.90;;;;;;4958241;28;20039;-73
2022/06/25 05:09:20;;;;;;;6.90;6.25;;;18.50;99.90;;;;;;4973589;28;20136;-73
2022/06/25 05:11:46;;;;;;;8.10;7.18;;;18.90;99.90;;;;;;4970713;28;20126;-73
2022/06/25 05:14:12;;;;;;;7.50;6.80;;;19.10;99.90;;;;;;4974222;28;20038;-73
2022/06/25 05:16:38;;;;;;;7.75;6.95;;;19.10;99.90;;;;;;4973493;28;20047;-73
2022/06/25 05:19:04;;;;;;;6.72;6.13;;;19.10;99.90;;;;;;4974044;28;20049;-74
2022/06/25 05:21:29;;;;;;;8.55;6.93;;;19.10;99.90;;;;;;4973682;28;20042;-74
2022/06/25 05:23:55;;;;;;;6.55;5.88;;;19.10;99.90;;;;;;4957690;28;20518;-74
2022/06/25 05:26:21;;;;;;;6.95;6.22;;;19.10;99.90;;;;;;4972698;28;20046;-74
2022/06/25 05:28:46;;;;;;;8.40;6.63;;;19.10;99.90;;;;;;4956837;28;20451;-74
2022/06/25 05:31:12;;;;;;;7.13;6.43;;;19.00;99.90;;;;;;4973496;28;20057;-74
2022/06/25 05:33:38;;;;;;;7.32;6.15;;;19.10;99.90;;;;;;4973608;28;20041;-74
2022/06/25 05:36:04;;;;;;;10.00;6.47;;;19.10;99.90;;;;;;4973534;28;20050;-74
2022/06/25 05:38:29;;;;;;;6.95;5.55;;;19.20;99.90;;;;;;4972812;28;20053;-74
2022/06/25 05:40:55;;;;;;;7.03;5.50;;;19.20;99.90;;;;;;4973642;28;20057;-74
2022/06/25 05:43:22;;;;;;;6.28;5.68;;;19.30;99.90;;;;;;4965121;28;20102;-74
2022/06/25 05:45:48;;;;;;;6.50;5.90;;;19.30;99.90;;;;;;4972563;28;20038;-74
2022/06/25 05:48:13;;;;;;;6.70;6.00;;;19.30;99.90;;;;;;4973711;28;20387;-74
2022/06/25 05:50:39;;;;;;;9.43;5.47;;;19.40;99.90;;;;;;4973173;28;20066;-74
2022/06/25 05:53:05;;;;;;;6.40;5.07;;;19.50;99.90;;;;;;4956378;28;20043;-74
2022/06/25 05:55:31;;;;;;;6.63;5.30;;;19.50;99.90;;;;;;4957555;28;20055;-74
2022/06/25 05:57:58;;;;;;;6.53;5.10;;;19.60;99.90;;;;;;4972286;28;20055;-74
2022/06/25 06:00:24;;;;;;;7.85;5.18;;;19.70;99.90;;;;;;4973514;28;20047;-74
2022/06/25 06:02:50;;;;;;;8.43;4.78;;;19.80;99.90;;;;;;4972323;28;20101;-74
2022/06/25 06:05:16;;;;;;;4.68;4.20;;;19.90;99.90;;;;;;4972999;28;20104;-74
2022/06/25 06:07:41;;;;;;;6.55;4.72;;;20.00;99.90;;;;;;4971432;28;20043;-74
2022/06/25 06:10:07;;;;;;;7.05;4.47;;;20.10;99.90;;;;;;4969608;28;20671;-74
2022/06/25 06:12:33;;;;;;;5.65;4.32;;;20.10;99.90;;;;;;4971237;28;20042;-74
2022/06/25 06:14:59;;;;;;;4.80;4.38;;;20.20;99.90;;;;;;4972959;28;20043;-74
2022/06/25 06:17:24;;;;;;;4.95;4.50;;;20.20;99.90;;;;;;4971773;28;20577;-75
2022/06/25 06:19:50;;;;;;;4.20;3.80;;;20.30;99.90;;;;;;4956980;28;20499;-75
2022/06/25 06:22:16;;;;;;;6.53;3.63;;;20.30;99.90;;;;;;4955993;28;20066;-74
2022/06/25 06:24:41;;;;;;;5.93;3.33;;;20.50;99.90;;;;;;4954758;28;20051;-74
2022/06/25 06:27:07;;;;;;;8.10;3.33;;;20.50;99.90;;;;;;4952728;28;20058;-75
2022/06/25 06:29:33;;;;;;;6.10;3.40;;;20.70;99.90;;;;;;4971150;28;20130;-75
2022/06/25 06:31:58;;;;;;;4.80;3.10;;;20.70;99.90;;;;;;4957674;28;20051;-75
2022/06/25 06:34:24;;;;;;;4.82;2.97;;;20.80;99.90;;;;;;4973049;28;20061;-75
2022/06/25 06:36:50;;;;;;;6.85;3.60;;;21.00;99.90;;;;;;4972963;28;20054;-74
2022/06/25 06:39:16;;;;;;;5.20;3.08;;;21.00;99.90;;;;;;4959087;28;20058;-74
2022/06/25 06:41:41;;;;;;;4.57;3.30;;;21.20;99.90;;;;;;4974761;28;20140;-74
2022/06/25 06:44:07;;;;;;;4.03;2.97;;;21.30;99.90;;;;;;4975473;28;20049;-74
2022/06/25 06:46:33;;;;;;;7.40;2.58;;;21.30;99.90;;;;;;4972845;28;20046;-74
2022/06/25 06:48:58;;;;;;;4.72;2.45;;;21.40;99.90;;;;;;4975038;28;20055;-74
2022/06/25 06:51:24;;;;;;;6.28;2.80;;;21.50;99.90;;;;;;4976769;28;20046;-74
2022/06/25 06:53:50;;;;;;;4.85;2.15;;;21.60;99.90;;;;;;4959091;28;20050;-74
2022/06/25 06:56:15;;;;;;;7.10;2.60;;;21.60;99.90;;;;;;4976240;28;20421;-74
2022/06/25 06:58:41;;;;;;;4.03;2.72;;;21.70;99.90;;;;;;4973954;28;20077;-74
2022/06/25 07:01:07;;;;;;;5.57;2.50;;;21.80;99.90;;;;;;4976039;28;20057;-74
2022/06/25 07:03:32;;;;;;;6.57;2.53;;;21.80;99.90;;;;;;4974630;28;20050;-75
2022/06/25 07:06:02;;;;;;;4.60;2.65;;;22.00;99.90;;;;;;4975709;28;20133;-75
2022/06/25 07:08:28;;;;;;;3.72;2.38;;;22.10;99.90;;;;;;4974800;28;20100;-74
2022/06/25 07:10:53;;;;;;;3.33;2.67;;;22.10;99.90;;;;;;4961018;28;20449;-74
2022/06/25 07:13:19;;;;;;;4.22;2.67;;;22.20;99.90;;;;;;4957440;28;20042;-74
2022/06/25 07:15:45;;;;;;;4.55;3.10;;;22.20;99.90;;;;;;4975346;28;20053;-74
2022/06/25 07:18:11;;;;;;;4.57;2.50;;;22.20;99.90;;;;;;4974993;28;20133;-74
2022/06/25 07:20:36;;;;;;;6.32;2.58;;;22.30;99.90;;;;;;4975870;28;20073;-75
2022/06/25 07:23:02;;;;;;;5.05;2.25;;;22.40;99.90;;;;;;4974556;28;20057;-75
2022/06/25 07:25:28;;;;;;;4.38;2.15;;;22.50;99.90;;;;;;4974959;28;20069;-75
2022/06/25 07:27:53;;;;;;;4.25;2.03;;;22.50;99.90;;;;;;4973851;28;20038;-76
2022/06/25 07:30:19;;;;;;;3.28;1.92;;;22.70;99.90;;;;;;4975052;28;20066;-76
2022/06/25 07:32:45;;;;;;;4.50;1.98;;;22.80;99.90;;;;;;4974539;28;20054;-76
2022/06/25 07:35:11;;;;;;;3.83;2.13;;;23.00;99.90;;;;;;4963710;28;20380;-75
2022/06/25 07:37:36;;;;;;;3.97;2.00;;;23.00;99.90;;;;;;4974940;28;20065;-76
2022/06/25 07:40:03;;;;;;;5.97;2.58;;;23.10;99.90;;;;;;4975216;28;20060;-75
2022/06/25 07:42:30;;;;;;;4.43;2.35;;;23.10;99.90;;;;;;4983113;28;20086;-75
2022/06/25 07:44:56;;;;;;;4.15;2.22;;;23.00;99.90;;;;;;4973812;28;20054;-75
2022/06/25 07:47:22;;;;;;;4.43;1.80;;;23.00;99.90;;;;;;4956755;28;20054;-75
2022/06/25 07:52:31;;;;;;;5.30;2.17;;;23.10;99.90;;;;;;4969783;28;20078;-75
2022/06/25 07:54:57;;;;;;;6.50;2.33;;;23.20;99.90;;;;;;4962282;28;20237;-75
2022/06/25 07:57:23;;;;;;;3.50;1.83;;;23.40;99.90;;;;;;4973718;28;20088;-75
2022/06/25 07:59:48;;;;;;;5.85;1.98;;;23.50;99.90;;;;;;4974539;28;20045;-75
2022/06/25 08:02:14;;;;;;;3.08;1.60;;;23.70;99.90;;;;;;4971044;28;20133;-75
2022/06/25 08:04:40;;;;;;;3.28;1.70;;;23.80;99.90;;;;;;4957338;28;20424;-75
2022/06/25 08:07:05;;;;;;;5.75;2.38;;;23.90;99.90;;;;;;4974752;28;20596;-76
2022/06/25 08:09:31;;;;;;;7.75;2.70;;;23.90;99.90;;;;;;4961896;28;20046;-76
2022/06/25 08:11:57;;;;;;;2.75;1.48;;;23.90;99.90;;;;;;4973950;28;20038;-75
2022/06/25 08:14:23;;;;;;;4.55;1.02;;;24.00;99.90;;;;;;4973908;28;20101;-75
2022/06/25 08:16:49;;;;;;;3.83;0.70;;;24.10;99.90;;;;;;4974454;28;20057;-75
2022/06/25 08:19:14;;;;;;;3.83;1.23;;;24.20;99.90;;;;;;4973744;28;20449;-75
2022/06/25 08:21:40;;;;;;;3.38;0.98;;;24.60;99.90;;;;;;4958997;28;20409;-75
2022/06/25 08:24:06;;;;;;;4.97;1.20;;;25.00;99.90;;;;;;4974916;28;20359;-75
2022/06/25 08:26:31;;;;;;;3.00;0.90;;;25.20;99.90;;;;;;4972724;28;20455;-75
2022/06/25 08:28:57;;;;;;;2.45;0.75;;;25.60;99.90;;;;;;4973490;28;20074;-75
2022/06/25 08:31:24;;;;;;;2.38;1.00;;;26.10;99.90;;;;;;4974277;28;20042;-75
2022/06/25 08:33:50;;;;;;;4.32;1.17;;;26.50;99.90;;;;;;4974617;28;20125;-76
2022/06/25 08:36:16;;;;;;;4.32;1.15;;;26.90;99.40;;;;;;4984174;28;20137;-75
2022/06/25 08:38:41;;;;;;;4.15;1.00;;;27.10;97.80;;;;;;4982253;28;20104;-75
2022/06/25 08:41:08;;;;;;;3.72;1.13;;;27.20;97.40;;;;;;4972270;28;20084;-75
2022/06/25 08:43:34;;;;;;;3.05;1.05;;;27.30;97.20;;;;;;4941801;28;20050;-75
2022/06/25 08:46:00;;;;;;;2.63;0.80;;;27.30;95.10;;;;;;4974602;28;20050;-75
2022/06/25 08:48:37;;;;;;;1.90;0.80;;;27.50;94.90;;;;;;4971988;28;20137;-76
2022/06/25 08:51:04;;;;;;;3.30;1.48;;;27.80;94.30;;;;;;4957643;28;20064;-75
2022/06/25 08:53:34;;;;;;;3.47;0.80;;;27.80;92.00;;;;;;4957175;28;20070;-75
2022/06/25 08:56:02;;;;;;;2.38;0.85;;;27.70;90.90;;;;;;4955566;28;20054;-75
2022/06/25 08:58:28;;;;;;;3.80;1.38;;;27.90;91.80;;;;;;4954789;28;20050;-75
2022/06/25 09:00:54;;;;;;;4.22;1.00;;;27.80;89.20;;;;;;4972714;28;20813;-76
2022/06/25 09:03:20;;;;;;;3.45;1.00;;;27.30;90.20;;;;;;4972124;28;20039;-75
2022/06/25 09:05:46;;;;;;;2.10;0.77;;;27.00;90.40;;;;;;4973005;28;20506;-76
2022/06/25 09:08:13;;;;;;;2.38;0.85;;;26.90;89.20;;;;;;4956924;28;20233;-75
2022/06/25 09:10:41;;;;;;;3.05;0.80;;;26.90;90.90;;;;;;4956625;28;20656;-75
2022/06/25 09:13:09;;;;;;;3.28;0.60;;;27.10;91.40;;;;;;4978440;28;20057;-75
2022/06/25 09:15:45;;;;;;;2.90;0.50;;;27.40;90.60;;;;;;4968912;28;20125;-75
2022/06/25 09:18:15;;;;;;;4.05;0.80;;;27.70;90.50;;;;;;4973961;28;20046;-75
2022/06/25 09:21:03;;;;;;;2.30;0.60;;;28.00;86.90;;;;;;4972597;28;20503;-75
2022/06/25 09:23:34;;;;;;;3.55;1.02;;;27.90;83.70;;;;;;4971296;28;20508;-75
2022/06/25 09:26:12;;;;;;;1.98;0.57;;;27.70;84.30;;;;;;4971899;28;20510;-75
2022/06/25 09:28:44;;;;;;;3.17;0.80;;;27.70;84.70;;;;;;4975475;28;20042;-75
2022/06/25 09:31:10;;;;;;;3.22;0.68;;;27.70;84.80;;;;;;4960910;28;20154;-74
2022/06/25 09:33:38;;;;;;;2.13;0.50;;;27.70;84.70;;;;;;4960020;28;20173;-74
2022/06/25 09:36:07;;;;;;;2.85;0.80;;;27.80;84.40;;;;;;4973771;28;20501;-74
2022/06/25 09:38:32;;;;;;;2.72;0.60;;;27.90;83.00;;;;;;4975736;28;20344;-75
2022/06/25 09:41:00;;;;;;;2.33;0.68;;;27.90;81.70;;;;;;4975383;28;20050;-75
2022/06/25 09:43:36;;;;;;;2.20;0.50;;;27.80;80.80;;;;;;4975674;28;20043;-75
2022/06/25 09:46:04;;;;;;;2.17;0.63;;;27.60;81.00;;;;;;4969168;28;20118;-74
2022/06/25 09:48:32;;;;;;;2.30;0.75;;;27.30;79.60;;;;;;4976596;28;20042;-74
2022/06/25 09:51:10;;;;;;;3.10;0.90;;;27.10;83.20;;;;;;4960145;28;20371;-73
2022/06/25 09:53:46;;;;;;;3.78;0.60;;;27.40;82.00;;;;;;4961396;28;20434;-73
2022/06/25 09:56:15;;;;;;;5.20;0.98;;;27.60;80.40;;;;;;4974046;28;20043;-73
2022/06/25 09:58:42;;;;;;;2.67;0.80;;;27.50;80.80;;;;;;4984690;28;20515;-73
2022/06/25 10:01:09;;;;;;;2.95;0.63;;;27.30;81.00;;;;;;4956527;28;20050;-75
2022/06/25 10:03:36;;;;;;;2.50;0.70;;;27.20;79.40;;;;;;4958643;28;20576;-74
2022/06/25 10:06:02;;;;;;;1.83;0.40;;;27.10;78.70;;;;;;4954952;28;20050;-74
2022/06/25 10:08:30;;;;;;;2.42;0.68;;;27.20;78.90;;;;;;4979428;28;20046;-74
2022/06/25 10:10:56;;;;;;;4.07;0.70;;;27.40;77.60;;;;;;4974214;28;20042;-74
2022/06/25 10:13:24;;;;;;;2.72;0.75;;;27.20;77.10;;;;;;4973660;28;20054;-74
2022/06/25 10:15:51;;;;;;;1.90;0.45;;;27.10;77.90;;;;;;4975787;28;20057;-74
2022/06/25 10:18:18;;;;;;;2.85;0.80;;;27.40;81.50;;;;;;4973651;28;20048;-74
2022/06/25 10:20:44;;;;;;;1.58;0.50;;;27.90;82.50;;;;;;4979969;28;20044;-74
2022/06/25 10:23:12;;;;;;;2.10;0.55;;;28.30;79.30;;;;;;4991125;28;20116;-73
2022/06/25 10:25:39;;;;;;;2.35;0.50;;;28.50;74.40;;;;;;4980187;28;20078;-73
2022/06/25 10:28:13;;;;;;;1.40;0.30;;;28.50;73.30;;;;;;4975299;28;20070;-74
2022/06/25 10:30:51;;;;;;;3.25;0.60;;;28.30;71.90;;;;;;4974647;28;20038;-74
2022/06/25 10:33:21;;;;;;;2.55;0.45;;;28.10;75.00;;;;;;4966302;28;20129;-74
2022/06/25 10:35:48;;;;;;;1.92;0.55;;;28.30;75.00;;;;;;4974390;28;20101;-74
2022/06/25 10:38:21;;;;;;;1.25;0.30;;;28.50;72.80;;;;;;4972303;28;20420;-74
2022/06/25 10:43:58;;;;;;;2.80;0.63;;;28.00;70.60;;;;;;4963698;28;20390;-72
2022/06/25 10:46:37;;;;;;;1.88;0.50;;;27.40;70.70;;;;;;4974606;28;20085;-73
2022/06/25 10:49:17;;;;;;;3.17;0.40;;;27.10;73.20;;;;;;4974319;28;20038;-73
2022/06/25 10:51:48;;;;;;;1.83;0.43;;;26.80;74.00;;;;;;4976849;28;20034;-73
2022/06/25 10:54:24;;;;;;;1.52;0.30;;;26.50;75.50;;;;;;4976755;28;20403;-72
2022/06/25 10:56:51;;;;;;;2.33;0.77;;;26.30;76.70;;;;;;4973606;28;20399;-72
2022/06/25 10:59:32;;;;;;;3.03;0.55;;;26.00;76.70;;;;;;4992381;28;20042;-72
2022/06/25 11:01:59;;;;;;;2.97;0.60;;;25.80;77.40;;;;;;4974201;28;20505;-72
2022/06/25 11:04:29;;;;;;;1.48;0.65;;;25.60;78.10;;;;;;4981003;28;20134;-73
2022/06/25 11:07:09;;;;;;;1.38;0.50;;;25.90;81.00;;;;;;4981707;28;20054;-72
2022/06/25 11:09:34;;;;;;;1.58;0.40;;;26.10;79.80;;;;;;4978932;28;20173;-72
2022/06/25 11:12:01;;;;;;;2.10;0.50;;;26.10;78.20;;;;;;4973570;28;20042;-72
2022/06/25 11:14:26;;;;;;;2.33;0.52;;;26.10;78.80;;;;;;4977788;28;20026;-72
2022/06/25 11:16:53;;;;;;;2.60;0.43;;;25.90;78.60;;;;;;4976298;28;20633;-72
2022/06/25 11:19:23;;;;;;;4.45;0.50;;;25.80;80.90;;;;;;4974572;28;20042;-73
2022/06/25 11:21:50;;;;;;;1.95;0.50;;;25.80;80.30;;;;;;4975031;28;20686;-66
2022/06/25 11:24:17;;;;;;;3.08;0.70;;;25.70;81.50;;;;;;4992479;28;20487;-67
2022/06/25 11:29:38;;;;;;;2.83;0.65;;;25.60;80.50;;;;;;4992318;28;20232;-68
2022/06/25 11:32:05;;;;;;;2.50;0.50;;;25.50;82.10;;;;;;4994176;28;20504;-68
2022/06/25 11:34:31;;;;;;;1.73;0.47;;;25.40;82.70;;;;;;4992580;28;20042;-68
2022/06/25 11:36:57;;;;;;;1.70;0.80;;;25.40;84.10;;;;;;4989725;28;20046;-68
2022/06/25 11:39:23;;;;;;;2.45;0.60;;;25.30;85.20;;;;;;4992398;28;20159;-68
2022/06/25 11:41:52;;;;;;;2.38;0.50;;;25.20;85.00;;;;;;4991143;28;20081;-68
2022/06/25 11:44:19;;;;;;;1.95;0.50;;;25.10;84.90;;;;;;4974574;28;20050;-67
2022/06/25 11:46:46;;;;;;;2.65;0.57;;;25.00;85.90;;;;;;4990317;28;20117;-68
2022/06/25 11:49:12;;;;;;;3.25;0.70;;;25.00;87.10;;;;;;4981816;28;20058;-68
2022/06/25 11:51:46;;;;;;;1.60;0.40;;;24.90;86.10;;;;;;4991483;28;20450;-68
2022/06/25 11:54:13;;;;;;;2.58;0.68;;;24.90;87.40;;;;;;4989950;28;20330;-68
2022/06/25 11:56:47;;;;;;;1.35;0.55;;;24.80;87.80;;;;;;4973848;28;20038;-69
2022/06/25 11:59:14;;;;;;;1.20;0.63;;;24.80;88.60;;;;;;4974246;28;20042;-68
2022/06/25 12:01:40;;;;;;;2.50;0.80;;;24.70;89.50;;;;;;4988064;28;20057;-68
2022/06/25 12:04:06;;;;;;;1.58;0.60;;;24.80;90.40;;;;;;4991970;28;20125;-68
2022/06/25 12:06:33;;;;;;;3.38;0.82;;;24.90;91.80;;;;;;4991398;28;20116;-68
2022/06/25 12:09:00;;;;;;;3.70;0.88;;;24.90;91.50;;;;;;4974045;28;20112;-68
2022/06/25 12:11:28;;;;;;;3.75;1.10;;;24.90;91.70;;;;;;4990506;28;20144;-68
2022/06/25 12:13:54;;;;;;;3.33;0.90;;;24.80;91.80;;;;;;4990694;28;20061;-68
2022/06/25 12:16:20;;;;;;;1.83;0.82;;;24.60;92.30;;;;;;4991258;28;20046;-68
2022/06/25 12:18:45;;;;;;;3.15;1.05;;;24.50;93.20;;;;;;4973688;28;20530;-68
2022/06/25 12:21:18;;;;;;;2.00;1.15;;;24.40;93.60;;;;;;4991795;28;20474;-68
2022/06/25 12:23:55;;;;;;;5.65;0.93;;;24.20;95.00;;;;;;4972924;28;20532;-68
2022/06/25 12:26:34;;;;;;;3.00;1.10;;;24.00;95.20;;;;;;4991175;28;20076;-68
2022/06/25 12:29:15;;;;;;;4.40;0.95;;;23.90;96.20;;;;;;4991290;28;20598;-67
2022/06/25 12:31:58;;;;;;;3.22;1.00;;;23.70;97.60;;;;;;4990140;28;20034;-68
2022/06/25 12:34:25;;;;;;;5.32;1.08;;;23.50;98.10;;;;;;4990712;28;20486;-67
2022/06/25 12:36:52;;;;;;;2.42;0.90;;;23.30;99.90;;;;;;4990990;28;20096;-68
2022/06/25 12:39:43;;;;;;;1.50;1.00;;;23.30;99.90;;;;;;4973296;28;20159;-68
2022/06/25 12:42:12;;;;;;;1.77;0.80;;;23.30;99.90;;;;;;4989937;28;20715;-68
2022/06/25 12:44:42;;;;;;;4.25;0.95;;;23.30;99.90;;;;;;4991163;28;20042;-68
2022/06/25 12:47:16;;;;;;;1.90;0.80;;;23.40;99.90;;;;;;4973299;28;20062;-69
2022/06/25 12:49:51;;;;;;;1.95;0.90;;;23.40;99.90;;;;;;4974635;28;20130;-69
2022/06/25 12:52:22;;;;;;;4.03;1.05;;;23.60;99.90;;;;;;4990606;28;20061;-69
2022/06/25 12:54:55;;;;;;;1.33;0.77;;;23.80;99.90;;;;;;4988308;28;20054;-69